sensor_id;sensor_type;location;lat;lon;timestamp;pressure;altitude;pressure_sealevel;temperature;humidity
69836;BME280;57132;51.972;4.450;2023-05-25T00:01:33;102618.34;;;9.90;100.00
69836;BME280;57132;51.972;4.450;2023-05-25T00:04:00;102612.09;;;9.91;100.00
69836;BME280;57132;51.972;4.450;2023-05-25T00:06:28;102622.50;;;9.97;100.00
69836;BME280;57132;51.972;4.450;2023-05-25T00:08:54;102611.81;;;9.97;100.00
69836;BME280;57132;51.972;4.450;2023-05-25T00:11:22;102621.63;;;9.97;100.00
69836;BME280;57132;51.972;4.450;2023-05-25T00:13:48;102624.31;;;9.97;100.00
69836;BME280;57132;51.972;4.450;2023-05-25T00:16:14;102618.97;;;9.97;100.00
69836;BME280;57132;51.972;4.450;2023-05-25T00:18:40;102618.91;;;9.98;100.00
69836;BME280;57132;51.972;4.450;2023-05-25T00:21:05;102620.56;;;10.01;100.00
69836;BME280;57132;51.972;4.450;2023-05-25T00:23:33;102617.97;;;9.99;100.00
69836;BME280;57132;51.972;4.450;2023-05-25T00:26:05;102619.72;;;10.00;100.00
69836;BME280;57132;51.972;4.450;2023-05-25T00:28:30;102619.72;;;10.00;100.00
69836;BME280;57132;51.972;4.450;2023-05-25T00:30:56;102625.06;;;10.00;100.00
69836;BME280;57132;51.972;4.450;2023-05-25T00:33:21;102629.53;;;10.00;100.00
69836;BME280;57132;51.972;4.450;2023-05-25T00:35:47;102615.44;;;9.96;100.00
69836;BME280;57132;51.972;4.450;2023-05-25T00:38:13;102622.50;;;9.97;100.00
69836;BME280;57132;51.972;4.450;2023-05-25T00:40:39;102625.25;;;9.96;100.00
69836;BME280;57132;51.972;4.450;2023-05-25T00:43:07;102629.63;;;9.97;100.00
69836;BME280;57132;51.972;4.450;2023-05-25T00:45:33;102623.44;;;9.96;100.00
69836;BME280;57132;51.972;4.450;2023-05-25T00:47:59;102630.47;;;9.99;100.00
69836;BME280;57132;51.972;4.450;2023-05-25T00:50:37;102626.84;;;10.00;100.00
69836;BME280;57132;51.972;4.450;2023-05-25T00:53:08;102628.53;;;10.02;100.00
69836;BME280;57132;51.972;4.450;2023-05-25T00:56:04;102634.66;;;10.04;100.00
69836;BME280;57132;51.972;4.450;2023-05-25T00:58:30;102623.75;;;10.10;100.00
69836;BME280;57132;51.972;4.450;2023-05-25T01:00:58;102634.25;;;10.15;100.00
69836;BME280;57132;51.972;4.450;2023-05-25T01:03:27;102632.22;;;10.22;100.00
69836;BME280;57132;51.972;4.450;2023-05-25T01:05:55;102632.09;;;10.25;100.00
69836;BME280;57132;51.972;4.450;2023-05-25T01:08:32;102641.66;;;10.30;100.00
69836;BME280;57132;51.972;4.450;2023-05-25T01:11:15;102645.88;;;10.36;100.00
69836;BME280;57132;51.972;4.450;2023-05-25T01:13:47;102643.88;;;10.41;100.00
69836;BME280;57132;51.972;4.450;2023-05-25T01:16:19;102648.22;;;10.44;100.00
69836;BME280;57132;51.972;4.450;2023-05-25T01:19:03;102652.59;;;10.46;100.00
69836;BME280;57132;51.972;4.450;2023-05-25T01:21:36;102655.19;;;10.48;100.00
69836;BME280;57132;51.972;4.450;2023-05-25T01:29:44;102651.75;;;10.44;100.00
69836;BME280;57132;51.972;4.450;2023-05-25T01:32:12;102658.91;;;10.44;100.00
69836;BME280;57132;51.972;4.450;2023-05-25T01:34:40;102657.28;;;10.40;100.00
69836;BME280;57132;51.972;4.450;2023-05-25T01:37:14;102654.81;;;10.35;100.00
69836;BME280;57132;51.972;4.450;2023-05-25T01:40:02;102651.34;;;10.33;100.00
69836;BME280;57132;51.972;4.450;2023-05-25T01:42:34;102654.94;;;10.32;100.00
69836;BME280;57132;51.972;4.450;2023-05-25T01:45:12;102663.03;;;10.30;100.00
69836;BME280;57132;51.972;4.450;2023-05-25T01:54:06;102668.81;;;10.18;100.00
69836;BME280;57132;51.972;4.450;2023-05-25T01:56:34;102673.53;;;10.12;100.00
69836;BME280;57132;51.972;4.450;2023-05-25T02:04:52;102674.88;;;10.00;100.00
69836;BME280;57132;51.972;4.450;2023-05-25T02:07:22;102667.06;;;9.95;100.00
69836;BME280;57132;51.972;4.450;2023-05-25T02:09:48;102673.31;;;9.94;100.00
69836;BME280;57132;51.972;4.450;2023-05-25T02:12:13;102671.53;;;9.95;100.00
69836;BME280;57132;51.972;4.450;2023-05-25T02:17:35;102677.03;;;9.90;100.00
69836;BME280;57132;51.972;4.450;2023-05-25T02:20:14;102673.63;;;9.87;100.00
69836;BME280;57132;51.972;4.450;2023-05-25T02:25:20;102674.69;;;9.81;100.00
69836;BME280;57132;51.972;4.450;2023-05-25T02:27:49;102674.88;;;9.76;100.00
69836;BME280;57132;51.972;4.450;2023-05-25T02:30:21;102680.31;;;9.73;100.00
69836;BME280;57132;51.972;4.450;2023-05-25T02:35:28;102679.75;;;9.65;100.00
69836;BME280;57132;51.972;4.450;2023-05-25T02:37:57;102678.94;;;9.63;100.00
69836;BME280;57132;51.972;4.450;2023-05-25T02:40:23;102684.31;;;9.61;100.00
69836;BME280;57132;51.972;4.450;2023-05-25T02:42:50;102683.53;;;9.59;100.00
69836;BME280;57132;51.972;4.450;2023-05-25T02:45:16;102683.63;;;9.56;100.00
69836;BME280;57132;51.972;4.450;2023-05-25T02:47:48;102688.09;;;9.56;100.00
69836;BME280;57132;51.972;4.450;2023-05-25T02:50:19;102694.38;;;9.55;100.00
69836;BME280;57132;51.972;4.450;2023-05-25T02:52:51;102688.16;;;9.54;100.00
69836;BME280;57132;51.972;4.450;2023-05-25T02:55:19;102686.41;;;9.53;100.00
69836;BME280;57132;51.972;4.450;2023-05-25T02:58:02;102684.78;;;9.49;100.00
69836;BME280;57132;51.972;4.450;2023-05-25T03:00:31;102692.78;;;9.49;100.00
69836;BME280;57132;51.972;4.450;2023-05-25T03:03:00;102688.47;;;9.45;100.00
69836;BME280;57132;51.972;4.450;2023-05-25T03:05:37;102698.44;;;9.40;100.00
69836;BME280;57132;51.972;4.450;2023-05-25T03:08:09;102702.16;;;9.36;100.00
69836;BME280;57132;51.972;4.450;2023-05-25T03:10:37;102706.81;;;9.29;100.00
69836;BME280;57132;51.972;4.450;2023-05-25T03:13:09;102700.91;;;9.21;100.00
69836;BME280;57132;51.972;4.450;2023-05-25T03:15:44;102700.97;;;9.20;100.00
69836;BME280;57132;51.972;4.450;2023-05-25T03:18:18;102708.19;;;9.16;100.00
69836;BME280;57132;51.972;4.450;2023-05-25T03:20:47;102702.00;;;9.16;100.00
69836;BME280;57132;51.972;4.450;2023-05-25T03:23:18;102707.31;;;9.16;100.00
69836;BME280;57132;51.972;4.450;2023-05-25T03:25:47;102706.50;;;9.14;100.00
69836;BME280;57132;51.972;4.450;2023-05-25T03:28:21;102704.84;;;9.09;100.00
69836;BME280;57132;51.972;4.450;2023-05-25T03:30:59;102704.84;;;9.09;100.00
69836;BME280;57132;51.972;4.450;2023-05-25T03:33:28;102704.81;;;9.11;100.00
69836;BME280;57132;51.972;4.450;2023-05-25T03:36:07;102716.25;;;9.15;100.00
69836;BME280;57132;51.972;4.450;2023-05-25T03:38:42;102714.59;;;9.10;100.00
69836;BME280;57132;51.972;4.450;2023-05-25T03:41:16;102709.38;;;9.07;100.00
69836;BME280;57132;51.972;4.450;2023-05-25T03:43:48;102709.59;;;9.01;100.00
69836;BME280;57132;51.972;4.450;2023-05-25T03:46:21;102715.13;;;8.95;100.00
69836;BME280;57132;51.972;4.450;2023-05-25T03:48:53;102711.88;;;8.87;100.00
69836;BME280;57132;51.972;4.450;2023-05-25T03:51:28;102714.63;;;8.84;100.00
69836;BME280;57132;51.972;4.450;2023-05-25T03:54:05;102710.25;;;8.81;100.00
69836;BME280;57132;51.972;4.450;2023-05-25T03:56:36;102720.81;;;8.84;100.00
69836;BME280;57132;51.972;4.450;2023-05-25T03:59:08;102718.94;;;8.86;100.00
69836;BME280;57132;51.972;4.450;2023-05-25T04:01:40;102718.94;;;8.86;100.00
69836;BME280;57132;51.972;4.450;2023-05-25T04:04:11;102726.91;;;8.88;100.00
69836;BME280;57132;51.972;4.450;2023-05-25T04:06:46;102728.56;;;8.91;100.00
69836;BME280;57132;51.972;4.450;2023-05-25T04:09:27;102722.28;;;8.93;100.00
69836;BME280;57132;51.972;4.450;2023-05-25T04:12:04;102722.88;;;9.03;100.00
69836;BME280;57132;51.972;4.450;2023-05-25T04:14:36;102725.97;;;9.16;100.00
69836;BME280;57132;51.972;4.450;2023-05-25T04:17:05;102729.88;;;9.30;100.00
69836;BME280;57132;51.972;4.450;2023-05-25T04:19:36;102729.34;;;9.46;100.00
69836;BME280;57132;51.972;4.450;2023-05-25T04:22:08;102731.56;;;9.58;100.00
69836;BME280;57132;51.972;4.450;2023-05-25T04:24:40;102725.81;;;9.70;100.00
69836;BME280;57132;51.972;4.450;2023-05-25T04:27:18;102730.50;;;9.87;100.00
69836;BME280;57132;51.972;4.450;2023-05-25T04:29:53;102733.28;;;10.07;100.00
69836;BME280;57132;51.972;4.450;2023-05-25T04:35:00;102738.69;;;10.51;100.00
69836;BME280;57132;51.972;4.450;2023-05-25T04:37:35;102747.81;;;10.68;100.00
69836;BME280;57132;51.972;4.450;2023-05-25T04:40:01;102758.81;;;10.82;100.00
69836;BME280;57132;51.972;4.450;2023-05-25T04:42:32;102759.06;;;10.98;100.00
69836;BME280;57132;51.972;4.450;2023-05-25T04:44:57;102754.53;;;11.20;100.00
69836;BME280;57132;51.972;4.450;2023-05-25T04:47:26;102759.16;;;11.37;100.00
69836;BME280;57132;51.972;4.450;2023-05-25T04:50:04;102756.94;;;11.47;100.00
69836;BME280;57132;51.972;4.450;2023-05-25T04:55:44;102751.19;;;11.76;100.00
69836;BME280;57132;51.972;4.450;2023-05-25T04:58:10;102754.94;;;11.93;100.00
69836;BME280;57132;51.972;4.450;2023-05-25T05:03:55;102756.09;;;12.25;100.00
69836;BME280;57132;51.972;4.450;2023-05-25T05:06:29;102753.13;;;12.31;100.00
69836;BME280;57132;51.972;4.450;2023-05-25T05:09:11;102755.25;;;12.43;100.00
69836;BME280;57132;51.972;4.450;2023-05-25T05:11:37;102756.50;;;12.53;100.00
69836;BME280;57132;51.972;4.450;2023-05-25T05:14:09;102762.72;;;12.73;100.00
69836;BME280;57132;51.972;4.450;2023-05-25T05:16:49;102766.00;;;13.14;100.00
69836;BME280;57132;51.972;4.450;2023-05-25T05:19:24;102763.50;;;13.96;100.00
69836;BME280;57132;51.972;4.450;2023-05-25T05:21:58;102752.63;;;15.39;100.00
69836;BME280;57132;51.972;4.450;2023-05-25T05:24:24;102753.50;;;16.54;100.00
69836;BME280;57132;51.972;4.450;2023-05-25T05:27:12;102753.47;;;17.73;100.00
69836;BME280;57132;51.972;4.450;2023-05-25T05:29:42;102752.72;;;18.22;100.00
69836;BME280;57132;51.972;4.450;2023-05-25T05:32:16;102759.34;;;18.79;100.00
69836;BME280;57132;51.972;4.450;2023-05-25T05:34:50;102759.47;;;19.01;100.00
69836;BME280;57132;51.972;4.450;2023-05-25T05:37:22;102764.81;;;19.60;100.00
69836;BME280;57132;51.972;4.450;2023-05-25T05:39:56;102771.03;;;18.79;100.00
69836;BME280;57132;51.972;4.450;2023-05-25T05:42:21;102770.50;;;17.23;100.00
69836;BME280;57132;51.972;4.450;2023-05-25T05:44:52;102763.88;;;15.90;100.00
69836;BME280;57132;51.972;4.450;2023-05-25T05:47:23;102770.81;;;15.05;100.00
69836;BME280;57132;51.972;4.450;2023-05-25T05:49:55;102763.97;;;14.36;100.00
69836;BME280;57132;51.972;4.450;2023-05-25T05:52:23;102773.53;;;14.26;100.00
69836;BME280;57132;51.972;4.450;2023-05-25T05:54:53;102780.34;;;14.16;100.00
69836;BME280;57132;51.972;4.450;2023-05-25T05:57:22;102779.53;;;16.26;100.00
69836;BME280;57132;51.972;4.450;2023-05-25T05:59:56;102781.50;;;18.47;100.00
69836;BME280;57132;51.972;4.450;2023-05-25T06:02:22;102789.41;;;19.57;100.00
69836;BME280;57132;51.972;4.450;2023-05-25T06:07:18;102790.97;;;20.29;90.09
69836;BME280;57132;51.972;4.450;2023-05-25T06:09:56;102794.66;;;19.83;89.62
69836;BME280;57132;51.972;4.450;2023-05-25T06:12:25;102802.38;;;19.30;93.09
69836;BME280;57132;51.972;4.450;2023-05-25T06:14:50;102799.44;;;18.48;94.52
69836;BME280;57132;51.972;4.450;2023-05-25T06:17:31;102800.06;;;18.77;100.00
69836;BME280;57132;51.972;4.450;2023-05-25T06:20:22;102796.47;;;19.71;92.69
69836;BME280;57132;51.972;4.450;2023-05-25T06:22:50;102810.06;;;20.72;89.82
69836;BME280;57132;51.972;4.450;2023-05-25T06:25:24;102803.91;;;20.25;85.47
69836;BME280;57132;51.972;4.450;2023-05-25T06:28:05;102799.78;;;18.93;88.91
69836;BME280;57132;51.972;4.450;2023-05-25T06:30:37;102808.81;;;18.18;96.54
69836;BME280;57132;51.972;4.450;2023-05-25T06:33:05;102799.38;;;17.60;100.00
69836;BME280;57132;51.972;4.450;2023-05-25T06:38:34;102801.38;;;17.84;100.00
69836;BME280;57132;51.972;4.450;2023-05-25T06:41:00;102802.06;;;17.35;100.00
69836;BME280;57132;51.972;4.450;2023-05-25T06:43:38;102809.00;;;16.85;100.00
69836;BME280;57132;51.972;4.450;2023-05-25T06:46:03;102808.06;;;16.16;100.00
69836;BME280;57132;51.972;4.450;2023-05-25T06:48:28;102813.22;;;15.46;100.00
69836;BME280;57132;51.972;4.450;2023-05-25T06:50:54;102806.56;;;14.91;100.00
69836;BME280;57132;51.972;4.450;2023-05-25T06:53:25;102808.22;;;14.62;100.00
69836;BME280;57132;51.972;4.450;2023-05-25T06:55:51;102819.69;;;14.66;100.00
69836;BME280;57132;51.972;4.450;2023-05-25T06:58:32;102824.19;;;14.81;100.00
69836;BME280;57132;51.972;4.450;2023-05-25T07:00:57;102823.66;;;14.90;100.00
69836;BME280;57132;51.972;4.450;2023-05-25T07:03:36;102829.38;;;14.52;100.00
69836;BME280;57132;51.972;4.450;2023-05-25T07:06:06;102828.09;;;14.26;100.00
69836;BME280;57132;51.972;4.450;2023-05-25T07:08:37;102838.31;;;14.20;100.00
69836;BME280;57132;51.972;4.450;2023-05-25T07:11:06;102837.16;;;15.20;100.00
69836;BME280;57132;51.972;4.450;2023-05-25T07:13:43;102835.06;;;16.14;100.00
69836;BME280;57132;51.972;4.450;2023-05-25T07:16:15;102836.16;;;16.12;100.00
69836;BME280;57132;51.972;4.450;2023-05-25T07:18:50;102844.41;;;16.23;100.00
69836;BME280;57132;51.972;4.450;2023-05-25T07:21:18;102839.53;;;15.71;100.00
69836;BME280;57132;51.972;4.450;2023-05-25T07:23:50;102839.75;;;15.22;100.00
69836;BME280;57132;51.972;4.450;2023-05-25T07:26:19;102848.38;;;14.97;100.00
69836;BME280;57132;51.972;4.450;2023-05-25T07:29:16;102850.63;;;15.05;100.00
69836;BME280;57132;51.972;4.450;2023-05-25T07:31:50;102848.13;;;14.86;100.00
69836;BME280;57132;51.972;4.450;2023-05-25T07:34:17;102849.31;;;14.80;100.00
69836;BME280;57132;51.972;4.450;2023-05-25T07:36:48;102846.56;;;14.82;100.00
69836;BME280;57132;51.972;4.450;2023-05-25T07:39:19;102851.13;;;14.64;100.00
69836;BME280;57132;51.972;4.450;2023-05-25T07:41:57;102846.56;;;14.66;100.00
69836;BME280;57132;51.972;4.450;2023-05-25T07:44:22;102851.94;;;14.66;100.00
69836;BME280;57132;51.972;4.450;2023-05-25T07:46:57;102852.25;;;14.60;100.00
69836;BME280;57132;51.972;4.450;2023-05-25T07:49:23;102855.38;;;14.68;100.00
69836;BME280;57132;51.972;4.450;2023-05-25T07:52:03;102866.25;;;14.66;100.00
69836;BME280;57132;51.972;4.450;2023-05-25T07:54:32;102859.38;;;14.61;100.00
69836;BME280;57132;51.972;4.450;2023-05-25T07:57:13;102865.38;;;14.82;100.00
69836;BME280;57132;51.972;4.450;2023-05-25T07:59:47;102867.66;;;15.35;100.00
69836;BME280;57132;51.972;4.450;2023-05-25T08:02:25;102868.69;;;15.79;100.00
69836;BME280;57132;51.972;4.450;2023-05-25T08:04:57;102868.00;;;16.19;100.00
69836;BME280;57132;51.972;4.450;2023-05-25T08:07:33;102873.84;;;16.83;100.00
69836;BME280;57132;51.972;4.450;2023-05-25T08:10:11;102873.53;;;17.42;100.00
69836;BME280;57132;51.972;4.450;2023-05-25T08:12:41;102868.50;;;17.50;100.00
69836;BME280;57132;51.972;4.450;2023-05-25T08:15:12;102874.16;;;17.33;100.00
69836;BME280;57132;51.972;4.450;2023-05-25T08:20:17;102874.31;;;16.61;100.00
69836;BME280;57132;51.972;4.450;2023-05-25T08:23:00;102880.94;;;16.70;100.00
69836;BME280;57132;51.972;4.450;2023-05-25T08:27:53;102886.72;;;16.92;100.00
69836;BME280;57132;51.972;4.450;2023-05-25T08:30:21;102889.16;;;16.68;100.00
69836;BME280;57132;51.972;4.450;2023-05-25T08:32:50;102878.09;;;16.30;100.00
69836;BME280;57132;51.972;4.450;2023-05-25T08:38:45;102902.53;;;15.53;100.00
69836;BME280;57132;51.972;4.450;2023-05-25T08:41:13;102893.16;;;15.44;100.00
69836;BME280;57132;51.972;4.450;2023-05-25T08:43:46;102899.69;;;15.40;100.00
69836;BME280;57132;51.972;4.450;2023-05-25T08:46:28;102891.13;;;15.33;100.00
69836;BME280;57132;51.972;4.450;2023-05-25T08:49:01;102891.88;;;15.35;100.00
69836;BME280;57132;51.972;4.450;2023-05-25T08:57:01;102891.13;;;15.17;100.00
69836;BME280;57132;51.972;4.450;2023-05-25T08:59:37;102901.50;;;15.39;100.00
69836;BME280;57132;51.972;4.450;2023-05-25T09:19:21;102897.66;;;15.13;100.00
69836;BME280;57132;51.972;4.450;2023-05-25T09:21:46;102904.44;;;15.05;100.00
69836;BME280;57132;51.972;4.450;2023-05-25T09:24:18;102905.88;;;14.94;100.00
69836;BME280;57132;51.972;4.450;2023-05-25T09:26:46;102911.16;;;14.96;100.00
69836;BME280;57132;51.972;4.450;2023-05-25T09:29:42;102896.94;;;14.78;100.00
69836;BME280;57132;51.972;4.450;2023-05-25T09:32:29;102902.16;;;14.81;100.00
69836;BME280;57132;51.972;4.450;2023-05-25T09:34:54;102901.81;;;14.87;100.00
69836;BME280;57132;51.972;4.450;2023-05-25T09:37:22;102906.91;;;14.92;100.00
69836;BME280;57132;51.972;4.450;2023-05-25T09:40:08;102902.94;;;14.83;100.00
69836;BME280;57132;51.972;4.450;2023-05-25T09:42:35;102905.88;;;14.79;100.00
69836;BME280;57132;51.972;4.450;2023-05-25T09:45:02;102904.31;;;14.90;100.00
69836;BME280;57132;51.972;4.450;2023-05-25T09:47:31;102892.28;;;14.97;100.00
69836;BME280;57132;51.972;4.450;2023-05-25T09:50:14;102902.06;;;14.98;100.00
69836;BME280;57132;51.972;4.450;2023-05-25T09:52:58;102902.16;;;15.13;100.00
69836;BME280;57132;51.972;4.450;2023-05-25T09:55:28;102903.28;;;15.24;100.00
69836;BME280;57132;51.972;4.450;2023-05-25T09:57:59;102902.66;;;15.35;100.00
69836;BME280;57132;51.972;4.450;2023-05-25T10:00:25;102899.16;;;15.49;100.00
69836;BME280;57132;51.972;4.450;2023-05-25T10:02:55;102911.19;;;15.73;100.00
69836;BME280;57132;51.972;4.450;2023-05-25T10:05:21;102909.03;;;15.80;100.00
69836;BME280;57132;51.972;4.450;2023-05-25T10:07:53;102902.78;;;15.94;100.00
69836;BME280;57132;51.972;4.450;2023-05-25T10:10:20;102898.97;;;16.27;100.00
69836;BME280;57132;51.972;4.450;2023-05-25T10:13:01;102900.25;;;16.78;100.00
69836;BME280;57132;51.972;4.450;2023-05-25T10:18:23;102896.00;;;16.60;100.00
69836;BME280;57132;51.972;4.450;2023-05-25T10:21:02;102894.88;;;16.35;100.00
69836;BME280;57132;51.972;4.450;2023-05-25T10:23:34;102892.16;;;16.35;100.00
69836;BME280;57132;51.972;4.450;2023-05-25T10:26:32;102894.81;;;16.07;100.00
69836;BME280;57132;51.972;4.450;2023-05-25T10:29:02;102900.19;;;15.92;100.00
69836;BME280;57132;51.972;4.450;2023-05-25T10:31:39;102894.19;;;15.87;100.00
69836;BME280;57132;51.972;4.450;2023-05-25T10:34:14;102900.28;;;15.91;100.00
69836;BME280;57132;51.972;4.450;2023-05-25T10:36:44;102905.59;;;15.92;100.00
69836;BME280;57132;51.972;4.450;2023-05-25T10:39:16;102905.34;;;15.81;100.00
69836;BME280;57132;51.972;4.450;2023-05-25T10:41:57;102906.13;;;15.83;100.00
69836;BME280;57132;51.972;4.450;2023-05-25T10:44:29;102906.81;;;15.87;100.00
69836;BME280;57132;51.972;4.450;2023-05-25T10:46:59;102916.38;;;16.07;100.00
69836;BME280;57132;51.972;4.450;2023-05-25T10:49:57;102908.44;;;16.19;100.00
69836;BME280;57132;51.972;4.450;2023-05-25T10:56:03;102910.44;;;16.30;100.00
69836;BME280;57132;51.972;4.450;2023-05-25T10:58:47;102911.22;;;16.61;100.00
69836;BME280;57132;51.972;4.450;2023-05-25T11:04:30;102912.72;;;16.22;100.00
69836;BME280;57132;51.972;4.450;2023-05-25T11:09:29;102919.56;;;16.13;100.00
69836;BME280;57132;51.972;4.450;2023-05-25T11:15:11;102917.34;;;16.06;100.00
69836;BME280;57132;51.972;4.450;2023-05-25T11:18:14;102915.78;;;16.02;100.00
69836;BME280;57132;51.972;4.450;2023-05-25T11:20:42;102919.03;;;15.92;100.00
69836;BME280;57132;51.972;4.450;2023-05-25T11:23:29;102919.03;;;15.92;100.00
69836;BME280;57132;51.972;4.450;2023-05-25T11:26:03;102911.38;;;16.01;100.00
69836;BME280;57132;51.972;4.450;2023-05-25T11:28:30;102901.75;;;16.11;100.00
69836;BME280;57132;51.972;4.450;2023-05-25T11:31:12;102901.19;;;16.20;100.00
69836;BME280;57132;51.972;4.450;2023-05-25T11:33:44;102901.88;;;16.38;100.00
69836;BME280;57132;51.972;4.450;2023-05-25T11:39:17;102890.28;;;16.93;100.00
69836;BME280;57132;51.972;4.450;2023-05-25T11:42:06;102889.44;;;16.78;100.00
69836;BME280;57132;51.972;4.450;2023-05-25T11:44:54;102899.75;;;16.57;100.00
69836;BME280;57132;51.972;4.450;2023-05-25T11:47:26;102890.72;;;16.44;100.00
69836;BME280;57132;51.972;4.450;2023-05-25T11:49:58;102893.59;;;16.41;100.00
69836;BME280;57132;51.972;4.450;2023-05-25T11:52:26;102891.19;;;16.36;100.00
69836;BME280;57132;51.972;4.450;2023-05-25T11:57:43;102891.34;;;16.19;100.00
69836;BME280;57132;51.972;4.450;2023-05-25T12:00:33;102885.97;;;16.05;100.00
69836;BME280;57132;51.972;4.450;2023-05-25T12:09:34;102888.28;;;16.11;100.00
69836;BME280;57132;51.972;4.450;2023-05-25T12:14:33;102882.59;;;16.15;100.00
69836;BME280;57132;51.972;4.450;2023-05-25T12:17:05;102885.41;;;16.28;100.00
69836;BME280;57132;51.972;4.450;2023-05-25T12:31:33;102891.66;;;15.70;100.00
69836;BME280;57132;51.972;4.450;2023-05-25T12:34:29;102890.75;;;15.85;100.00
69836;BME280;57132;51.972;4.450;2023-05-25T12:48:24;102883.09;;;16.22;100.00
69836;BME280;57132;51.972;4.450;2023-05-25T12:51:13;102889.84;;;16.29;100.00
69836;BME280;57132;51.972;4.450;2023-05-25T12:54:07;102891.66;;;16.43;96.32
69836;BME280;57132;51.972;4.450;2023-05-25T13:05:40;102875.91;;;16.51;94.82
69836;BME280;57132;51.972;4.450;2023-05-25T13:08:34;102879.44;;;16.52;94.68
69836;BME280;57132;51.972;4.450;2023-05-25T13:11:08;102869.31;;;16.69;96.69
69836;BME280;57132;51.972;4.450;2023-05-25T13:13:39;102872.78;;;16.71;94.78
69836;BME280;57132;51.972;4.450;2023-05-25T13:16:23;102868.38;;;16.56;94.20
69836;BME280;57132;51.972;4.450;2023-05-25T13:18:55;102871.06;;;16.42;95.44
69836;BME280;57132;51.972;4.450;2023-05-25T13:24:38;102862.97;;;16.42;96.04
69836;BME280;57132;51.972;4.450;2023-05-25T13:30:17;102871.53;;;16.63;98.13
69836;BME280;57132;51.972;4.450;2023-05-25T13:41:42;102855.19;;;16.52;99.36
69836;BME280;57132;51.972;4.450;2023-05-25T13:44:22;102856.91;;;16.53;99.73
69836;BME280;57132;51.972;4.450;2023-05-25T13:46:54;102858.00;;;16.36;98.13
69836;BME280;57132;51.972;4.450;2023-05-25T13:49:20;102852.41;;;16.25;99.02
69836;BME280;57132;51.972;4.450;2023-05-25T13:51:55;102856.91;;;16.38;100.00
69836;BME280;57132;51.972;4.450;2023-05-25T13:58:23;102854.22;;;16.67;99.17
69836;BME280;57132;51.972;4.450;2023-05-25T14:00:59;102855.34;;;16.91;96.40
69836;BME280;57132;51.972;4.450;2023-05-25T14:06:08;102854.84;;;16.99;91.27
69836;BME280;57132;51.972;4.450;2023-05-25T14:16:30;102843.53;;;16.22;97.16
69836;BME280;57132;51.972;4.450;2023-05-25T14:19:26;102857.97;;;16.21;95.41
69836;BME280;57132;51.972;4.450;2023-05-25T14:22:01;102847.78;;;16.12;93.11
69836;BME280;57132;51.972;4.450;2023-05-25T14:24:27;102852.31;;;16.12;93.74
69836;BME280;57132;51.972;4.450;2023-05-25T14:26:52;102856.81;;;16.11;93.22
69836;BME280;57132;51.972;4.450;2023-05-25T14:29:33;102852.56;;;16.07;92.63
69836;BME280;57132;51.972;4.450;2023-05-25T14:31:58;102852.97;;;16.01;91.87
69836;BME280;57132;51.972;4.450;2023-05-25T14:34:44;102844.97;;;16.14;92.57
69836;BME280;57132;51.972;4.450;2023-05-25T14:37:29;102849.13;;;16.48;90.31
69836;BME280;57132;51.972;4.450;2023-05-25T14:39:54;102851.91;;;16.75;90.35
69836;BME280;57132;51.972;4.450;2023-05-25T14:42:23;102849.94;;;16.91;90.71
69836;BME280;57132;51.972;4.450;2023-05-25T14:45:01;102849.59;;;16.83;90.99
69836;BME280;57132;51.972;4.450;2023-05-25T14:47:29;102854.97;;;16.69;93.33
69836;BME280;57132;51.972;4.450;2023-05-25T14:52:36;102847.78;;;16.41;89.01
69836;BME280;57132;51.972;4.450;2023-05-25T14:55:33;102845.75;;;16.44;87.68
69836;BME280;57132;51.972;4.450;2023-05-25T15:00:46;102844.19;;;16.83;87.38
69836;BME280;57132;51.972;4.450;2023-05-25T15:03:27;102845.91;;;16.84;89.05
69836;BME280;57132;51.972;4.450;2023-05-25T15:09:01;102838.97;;;16.66;86.93
69836;BME280;57132;51.972;4.450;2023-05-25T15:11:30;102834.25;;;16.69;83.45
69836;BME280;57132;51.972;4.450;2023-05-25T15:14:00;102832.72;;;16.80;85.23
69836;BME280;57132;51.972;4.450;2023-05-25T15:19:05;102826.16;;;16.84;84.43
69836;BME280;57132;51.972;4.450;2023-05-25T15:21:42;102831.63;;;16.96;83.47
69836;BME280;57132;51.972;4.450;2023-05-25T15:24:33;102836.81;;;17.00;82.42
69836;BME280;57132;51.972;4.450;2023-05-25T15:27:01;102838.38;;;16.89;84.74
69836;BME280;57132;51.972;4.450;2023-05-25T15:35:42;102838.38;;;16.89;79.34
69836;BME280;57132;51.972;4.450;2023-05-25T15:38:14;102838.88;;;16.82;81.34
69836;BME280;57132;51.972;4.450;2023-05-25T15:40:59;102839.06;;;16.79;80.08
69836;BME280;57132;51.972;4.450;2023-05-25T15:51:14;102833.09;;;16.88;77.60
69836;BME280;57132;51.972;4.450;2023-05-25T15:53:46;102831.63;;;16.82;80.15
69836;BME280;57132;51.972;4.450;2023-05-25T15:56:20;102830.13;;;16.78;78.93
69836;BME280;57132;51.972;4.450;2023-05-25T15:58:53;102831.19;;;16.76;80.54
69836;BME280;57132;51.972;4.450;2023-05-25T16:01:24;102828.66;;;16.87;80.64
69836;BME280;57132;51.972;4.450;2023-05-25T16:03:52;102847.81;;;16.96;79.96
69836;BME280;57132;51.972;4.450;2023-05-25T16:06:27;102843.56;;;16.92;90.94
69836;BME280;57132;51.972;4.450;2023-05-25T16:11:38;102829.03;;;16.39;95.93
69836;BME280;57132;51.972;4.450;2023-05-25T16:33:45;102814.50;;;16.13;99.43
69836;BME280;57132;51.972;4.450;2023-05-25T16:36:10;102815.66;;;16.09;98.07
69836;BME280;57132;51.972;4.450;2023-05-25T16:38:44;102819.38;;;16.07;98.61
69836;BME280;57132;51.972;4.450;2023-05-25T16:41:34;102818.53;;;15.92;97.18
69836;BME280;57132;51.972;4.450;2023-05-25T16:44:05;102811.00;;;15.83;100.00
69836;BME280;57132;51.972;4.450;2023-05-25T16:46:49;102814.38;;;15.86;100.00